createdAt,value
2023-10-02T00:00:32.422Z,0.00
2023-10-02T00:01:32.464Z,0.00
2023-10-02T00:02:32.473Z,0.00
2023-10-02T00:03:32.452Z,0.00
2023-10-02T00:04:32.393Z,0.00
2023-10-02T00:05:32.344Z,0.00
2023-10-02T00:06:32.336Z,0.00
2023-10-02T00:07:32.332Z,0.00
2023-10-02T00:08:32.339Z,0.00
2023-10-02T00:09:32.301Z,0.00
2023-10-02T00:10:32.347Z,0.00
2023-10-02T00:11:32.301Z,0.00
2023-10-02T00:12:32.294Z,0.00
2023-10-02T00:13:32.336Z,0.00
2023-10-02T00:14:32.258Z,0.00
2023-10-02T00:15:32.273Z,0.00
2023-10-02T00:16:32.250Z,0.00
2023-10-02T00:17:32.298Z,0.00
2023-10-02T00:18:32.220Z,0.00
2023-10-02T00:19:32.280Z,0.00
2023-10-02T00:20:32.194Z,0.00
2023-10-02T00:21:32.191Z,0.00
2023-10-02T00:22:32.408Z,0.00
2023-10-02T00:23:32.165Z,0.00
2023-10-02T00:24:32.158Z,0.00
2023-10-02T00:25:32.156Z,0.00
2023-10-02T00:26:32.106Z,0.00
2023-10-02T00:27:32.132Z,0.00
2023-10-02T00:28:32.213Z,0.00
2023-10-02T00:29:32.098Z,0.00
2023-10-02T00:30:32.105Z,0.00
2023-10-02T00:31:32.135Z,0.00
2023-10-02T00:32:32.123Z,0.00
2023-10-02T00:33:32.066Z,0.00
2023-10-02T00:34:32.067Z,0.00
2023-10-02T00:35:32.050Z,0.00
2023-10-02T00:36:32.035Z,0.00
2023-10-02T00:37:32.048Z,0.00
2023-10-02T00:38:32.004Z,0.00
2023-10-02T00:39:32.030Z,0.00
2023-10-02T00:40:32.446Z,0.00
2023-10-02T00:41:32.022Z,0.00
2023-10-02T00:42:31.963Z,0.00
2023-10-02T00:43:31.983Z,0.00
2023-10-02T00:44:31.943Z,0.00
2023-10-02T00:45:31.942Z,0.00
2023-10-02T00:46:31.968Z,0.00
2023-10-02T00:47:32.079Z,0.00
2023-10-02T00:48:31.977Z,0.00
2023-10-02T00:49:31.932Z,0.00
2023-10-02T00:50:31.906Z,0.00
2023-10-02T00:51:31.934Z,0.00
2023-10-02T00:52:31.887Z,0.00
2023-10-02T00:53:31.851Z,0.00
2023-10-02T00:54:31.847Z,0.00
2023-10-02T00:55:32.027Z,0.00
2023-10-02T00:56:31.816Z,0.00
2023-10-02T00:57:31.802Z,0.00
2023-10-02T00:58:31.808Z,0.00
2023-10-02T00:59:31.790Z,0.00
2023-10-02T01:00:31.775Z,0.00
2023-10-02T01:01:31.854Z,0.00
2023-10-02T01:02:31.814Z,0.00
2023-10-02T01:03:31.789Z,0.00
2023-10-02T01:04:31.781Z,0.00
2023-10-02T01:05:31.718Z,0.00
2023-10-02T01:06:31.710Z,0.00
2023-10-02T01:07:31.702Z,0.00
2023-10-02T01:08:31.708Z,0.00
2023-10-02T01:09:31.689Z,0.00
2023-10-02T01:10:31.777Z,0.00
2023-10-02T01:11:31.632Z,0.00
2023-10-02T01:12:31.636Z,0.00
2023-10-02T01:13:31.690Z,0.00
2023-10-02T01:14:31.633Z,0.00
2023-10-02T01:15:48.680Z,0.00
2023-10-02T01:16:31.634Z,0.00
2023-10-02T01:17:31.732Z,0.00
2023-10-02T01:18:31.592Z,0.00
2023-10-02T01:19:31.620Z,0.00
2023-10-02T01:20:31.554Z,0.00
2023-10-02T01:21:31.520Z,0.00
2023-10-02T01:22:31.595Z,0.00
2023-10-02T01:23:31.505Z,0.00
2023-10-02T01:24:31.489Z,0.00
2023-10-02T01:25:31.564Z,0.00
2023-10-02T01:26:31.463Z,0.00
2023-10-02T01:27:31.458Z,0.00
2023-10-02T01:28:31.494Z,0.00
2023-10-02T01:29:31.467Z,0.00
2023-10-02T01:30:31.443Z,0.00
2023-10-02T01:31:31.456Z,0.00
2023-10-02T01:32:31.457Z,0.00
2023-10-02T01:33:31.409Z,0.00
2023-10-02T01:34:31.414Z,0.00
2023-10-02T01:35:31.396Z,0.00
2023-10-02T01:36:31.359Z,0.00
2023-10-02T01:37:31.395Z,0.00
2023-10-02T01:38:31.472Z,0.00
2023-10-02T01:39:31.348Z,0.00
2023-10-02T01:40:31.366Z,0.00
2023-10-02T01:41:31.373Z,0.00
2023-10-02T01:42:31.349Z,0.00
2023-10-02T01:43:31.314Z,0.00
2023-10-02T01:44:34.348Z,0.00
2023-10-02T01:45:31.286Z,0.00
2023-10-02T01:46:31.318Z,0.00
2023-10-02T01:47:31.310Z,0.00
2023-10-02T01:48:31.263Z,0.00
2023-10-02T01:49:31.253Z,0.00
2023-10-02T01:50:31.217Z,0.00
2023-10-02T01:51:31.214Z,0.00
2023-10-02T01:52:45.854Z,0.00
2023-10-02T01:53:31.345Z,0.00
2023-10-02T01:54:31.174Z,0.00
2023-10-02T01:55:31.597Z,0.00
2023-10-02T01:56:31.207Z,0.00
2023-10-02T01:57:31.153Z,0.00
2023-10-02T01:58:31.249Z,0.00
2023-10-02T01:59:31.151Z,0.00
2023-10-02T02:00:31.172Z,0.00
2023-10-02T02:01:31.304Z,0.00
2023-10-02T02:02:31.261Z,0.00
2023-10-02T02:03:31.142Z,0.00
2023-10-02T02:04:31.124Z,0.00
2023-10-02T02:05:31.082Z,0.00
2023-10-02T02:06:31.053Z,0.00
2023-10-02T02:07:31.032Z,0.00
2023-10-02T02:08:31.026Z,0.00
2023-10-02T02:09:31.066Z,0.00
2023-10-02T02:10:30.996Z,0.00
2023-10-02T02:11:31.133Z,0.00
2023-10-02T02:12:30.994Z,0.00
2023-10-02T02:13:31.015Z,0.00
2023-10-02T02:14:30.959Z,0.00
2023-10-02T02:15:30.973Z,0.00
2023-10-02T02:16:30.966Z,0.00
2023-10-02T02:17:31.020Z,0.00
2023-10-02T02:18:30.941Z,0.00
2023-10-02T02:19:30.943Z,0.00
2023-10-02T02:20:30.898Z,0.00
2023-10-02T02:21:30.888Z,0.00
2023-10-02T02:22:30.875Z,0.00
2023-10-02T02:23:30.922Z,0.00
2023-10-02T02:24:30.878Z,0.00
2023-10-02T02:25:30.897Z,0.00
2023-10-02T02:26:30.863Z,0.00
2023-10-02T02:27:30.862Z,0.00
2023-10-02T02:28:30.810Z,0.00
2023-10-02T02:29:30.923Z,0.00
2023-10-02T02:30:30.819Z,0.00
2023-10-02T02:31:30.896Z,0.00
2023-10-02T02:32:30.846Z,0.00
2023-10-02T02:33:30.759Z,0.00
2023-10-02T02:34:30.772Z,0.00
2023-10-02T02:35:30.772Z,0.00
2023-10-02T02:36:30.749Z,0.00
2023-10-02T02:37:30.733Z,0.00
2023-10-02T02:38:30.719Z,0.00
2023-10-02T02:39:30.707Z,0.00
2023-10-02T02:40:30.704Z,0.00
2023-10-02T02:41:30.706Z,0.00
2023-10-02T02:42:30.658Z,0.00
2023-10-02T02:43:30.669Z,0.00
2023-10-02T02:44:30.679Z,0.00
2023-10-02T02:45:31.964Z,0.00
2023-10-02T02:46:30.685Z,0.00
2023-10-02T02:47:30.650Z,0.00
2023-10-02T02:48:30.600Z,0.00
2023-10-02T02:49:30.610Z,0.00
2023-10-02T02:50:30.579Z,0.00
2023-10-02T02:51:30.598Z,0.00
2023-10-02T02:52:30.574Z,0.00
2023-10-02T02:53:30.570Z,0.00
2023-10-02T02:54:30.564Z,0.00
2023-10-02T02:55:30.529Z,0.00
2023-10-02T02:56:30.542Z,0.00
2023-10-02T02:57:30.593Z,0.00
2023-10-02T02:58:30.498Z,0.00
2023-10-02T02:59:30.492Z,0.00
2023-10-02T03:00:30.528Z,0.00
2023-10-02T03:01:30.560Z,0.00
2023-10-02T03:02:30.680Z,0.00
2023-10-02T03:03:30.564Z,0.00
2023-10-02T03:04:30.439Z,0.00
2023-10-02T03:05:30.456Z,0.00
2023-10-02T03:06:30.429Z,0.00
2023-10-02T03:07:30.415Z,0.00
2023-10-02T03:08:30.406Z,0.00
2023-10-02T03:09:30.399Z,0.00
2023-10-02T03:10:30.385Z,0.00
2023-10-02T03:11:30.787Z,0.00
2023-10-02T03:12:30.406Z,0.00
2023-10-02T03:13:30.355Z,0.00
2023-10-02T03:14:30.335Z,0.00
2023-10-02T03:15:30.331Z,0.00
2023-10-02T03:16:30.974Z,0.00
2023-10-02T03:17:30.353Z,0.00
2023-10-02T03:18:30.308Z,0.00
2023-10-02T03:19:30.283Z,0.00
2023-10-02T03:20:30.272Z,0.00
2023-10-02T03:21:30.288Z,0.00
2023-10-02T03:22:30.260Z,0.00
2023-10-02T03:23:30.228Z,0.00
2023-10-02T03:24:30.246Z,0.00
2023-10-02T03:25:30.227Z,0.00
2023-10-02T03:26:30.226Z,0.00
2023-10-02T03:27:30.191Z,0.00
2023-10-02T03:28:30.198Z,0.00
2023-10-02T03:29:30.170Z,0.00
2023-10-02T03:30:30.164Z,0.00
2023-10-02T03:31:30.185Z,0.00
2023-10-02T03:32:30.264Z,0.00
2023-10-02T03:33:30.138Z,0.00
2023-10-02T03:34:30.939Z,0.00
2023-10-02T03:35:30.108Z,0.00
2023-10-02T03:36:30.103Z,0.00
2023-10-02T03:37:30.065Z,0.00
2023-10-02T03:38:30.057Z,0.00
2023-10-02T03:39:30.093Z,0.00
2023-10-02T03:40:30.044Z,0.00
2023-10-02T03:41:30.042Z,0.00
2023-10-02T03:42:30.012Z,0.00
2023-10-02T03:43:30.000Z,0.00
2023-10-02T03:44:30.028Z,0.00
2023-10-02T03:45:30.035Z,0.00
2023-10-02T03:46:29.992Z,0.00
2023-10-02T03:47:29.977Z,0.00
2023-10-02T03:48:29.959Z,0.00
2023-10-02T03:49:29.953Z,0.00
2023-10-02T03:50:29.949Z,0.00
2023-10-02T03:51:29.914Z,0.00
2023-10-02T03:52:29.924Z,0.00
2023-10-02T03:53:30.096Z,0.00
2023-10-02T03:54:29.892Z,0.00
2023-10-02T03:55:29.922Z,0.00
2023-10-02T03:56:29.897Z,0.00
2023-10-02T03:57:29.865Z,0.00
2023-10-02T03:58:29.839Z,0.00
2023-10-02T03:59:29.821Z,0.00
2023-10-02T04:00:29.851Z,0.00
2023-10-02T04:01:29.851Z,0.00
2023-10-02T04:02:29.825Z,0.00
2023-10-02T04:03:29.796Z,0.00
2023-10-02T04:04:29.776Z,0.00
2023-10-02T04:05:29.785Z,0.00
2023-10-02T04:06:29.774Z,0.00
2023-10-02T04:07:29.789Z,0.00
2023-10-02T04:08:29.738Z,0.00
2023-10-02T04:09:29.734Z,0.00
2023-10-02T04:10:29.714Z,0.00
2023-10-02T04:11:29.716Z,0.00
2023-10-02T04:12:29.688Z,0.00
2023-10-02T04:13:29.723Z,0.00
2023-10-02T04:14:29.680Z,0.00
2023-10-02T04:15:29.671Z,0.00
2023-10-02T04:16:29.658Z,0.00
2023-10-02T04:17:29.662Z,0.00
2023-10-02T04:18:29.645Z,0.00
2023-10-02T04:19:29.652Z,0.00
2023-10-02T04:20:29.610Z,0.00
2023-10-02T04:21:29.602Z,0.00
2023-10-02T04:22:29.627Z,0.00
2023-10-02T04:23:29.584Z,0.00
2023-10-02T04:24:29.583Z,0.00
2023-10-02T04:25:29.566Z,0.00
2023-10-02T04:26:29.545Z,0.00
2023-10-02T04:27:29.590Z,0.00
2023-10-02T04:28:29.562Z,0.00
2023-10-02T04:29:29.662Z,0.00
2023-10-02T04:30:29.507Z,0.00
2023-10-02T04:31:29.628Z,0.00
2023-10-02T04:32:29.567Z,0.00
2023-10-02T04:33:29.484Z,0.00
2023-10-02T04:34:29.400Z,1.00
2023-10-02T04:35:29.465Z,0.00
2023-10-02T04:36:29.393Z,1.00
2023-10-02T04:37:29.407Z,1.00
2023-10-02T04:38:29.405Z,1.00
2023-10-02T04:39:29.365Z,2.00
2023-10-02T04:40:29.372Z,2.00
2023-10-02T04:41:29.329Z,2.00
2023-10-02T04:42:29.343Z,1.00
2023-10-02T04:43:29.374Z,0.00
2023-10-02T04:44:29.338Z,4.00
2023-10-02T04:45:29.314Z,4.00
2023-10-02T04:46:29.286Z,5.00
2023-10-02T04:47:29.326Z,8.00
2023-10-02T04:48:29.270Z,5.00
2023-10-02T04:49:29.266Z,5.00
2023-10-02T04:50:29.264Z,6.00
2023-10-02T04:51:29.229Z,8.00
2023-10-02T04:52:29.224Z,11.00
2023-10-02T04:53:29.207Z,12.00
2023-10-02T04:54:29.185Z,14.00
2023-10-02T04:55:29.453Z,18.00
2023-10-02T04:56:29.172Z,18.00
2023-10-02T04:57:29.168Z,23.00
2023-10-02T04:58:29.148Z,28.00
2023-10-02T04:59:29.147Z,35.00
2023-10-02T05:00:29.160Z,37.00
2023-10-02T05:01:29.147Z,44.00
2023-10-02T05:02:29.147Z,49.00
2023-10-02T05:03:29.140Z,52.00
2023-10-02T05:04:29.093Z,57.00
2023-10-02T05:05:29.079Z,65.00
2023-10-02T05:06:29.105Z,73.00
2023-10-02T05:07:29.051Z,88.00
2023-10-02T05:08:29.078Z,101.00
2023-10-02T05:09:29.035Z,121.00
2023-10-02T05:10:29.020Z,137.00
2023-10-02T05:11:29.043Z,145.00
2023-10-02T05:12:29.041Z,155.00
2023-10-02T05:13:28.967Z,166.00
2023-10-02T05:14:29.002Z,179.00
2023-10-02T05:15:28.963Z,187.00
2023-10-02T05:16:29.029Z,199.00
2023-10-02T05:17:29.132Z,216.00
2023-10-02T05:18:29.009Z,234.00
2023-10-02T05:19:28.904Z,251.00
2023-10-02T05:20:28.900Z,286.00
2023-10-02T05:21:28.899Z,323.00
2023-10-02T05:22:28.901Z,351.00
2023-10-02T05:23:28.884Z,370.00
2023-10-02T05:24:28.872Z,398.00
2023-10-02T05:25:28.839Z,424.00
2023-10-02T05:26:28.830Z,444.00
2023-10-02T05:27:28.888Z,472.00
2023-10-02T05:28:28.809Z,508.00
2023-10-02T05:29:28.843Z,534.00
2023-10-02T05:30:28.790Z,572.00
2023-10-02T05:31:28.770Z,608.00
2023-10-02T05:32:28.842Z,642.00
2023-10-02T05:33:28.762Z,666.00
2023-10-02T05:34:28.740Z,693.00
2023-10-02T05:35:29.853Z,725.00
2023-10-02T05:36:28.725Z,760.00
2023-10-02T05:37:28.755Z,780.00
2023-10-02T05:38:28.694Z,807.00
2023-10-02T05:39:28.695Z,839.00
2023-10-02T05:40:28.679Z,876.00
2023-10-02T05:41:28.688Z,908.00
2023-10-02T05:42:28.681Z,941.00
2023-10-02T05:43:28.681Z,970.00
2023-10-02T05:44:28.654Z,1006.00
2023-10-02T05:45:28.637Z,1040.00
2023-10-02T05:46:28.649Z,1077.00
2023-10-02T05:47:28.735Z,1118.00
2023-10-02T05:48:28.700Z,1167.00
2023-10-02T05:49:28.570Z,1206.00
2023-10-02T05:50:28.592Z,1245.00
2023-10-02T05:51:28.573Z,1286.00
2023-10-02T05:52:28.619Z,1322.00
2023-10-02T05:53:28.532Z,1363.00
2023-10-02T05:54:28.528Z,1402.00
2023-10-02T05:55:28.513Z,1425.00
2023-10-02T05:56:28.526Z,1452.00
2023-10-02T05:57:28.520Z,1486.00
2023-10-02T05:58:28.589Z,1507.00
2023-10-02T05:59:28.511Z,1512.00
2023-10-02T06:00:28.494Z,1530.00
2023-10-02T06:01:28.665Z,1531.00
2023-10-02T06:02:28.495Z,1539.00
2023-10-02T06:03:28.517Z,1537.00
2023-10-02T06:04:28.442Z,1541.00
2023-10-02T06:05:28.425Z,1544.00
2023-10-02T06:06:28.422Z,1544.00
2023-10-02T06:07:28.386Z,1550.00
2023-10-02T06:08:28.394Z,1562.00
2023-10-02T06:09:28.397Z,1574.00
2023-10-02T06:10:28.464Z,1584.00
2023-10-02T06:11:28.522Z,1605.00
2023-10-02T06:12:28.371Z,1630.00
2023-10-02T06:13:28.339Z,1660.00
2023-10-02T06:14:28.394Z,1680.00
2023-10-02T06:15:28.347Z,1710.00
2023-10-02T06:16:28.339Z,1743.00
2023-10-02T06:17:28.324Z,1774.00
2023-10-02T06:18:28.757Z,1815.00
2023-10-02T06:19:28.331Z,1830.00
2023-10-02T06:20:28.296Z,1866.00
2023-10-02T06:21:28.249Z,1893.00
2023-10-02T06:22:28.244Z,1916.00
2023-10-02T06:23:28.234Z,1944.00
2023-10-02T06:24:28.203Z,1962.00
2023-10-02T06:25:28.226Z,1957.00
2023-10-02T06:26:28.234Z,1962.00
2023-10-02T06:27:28.173Z,1979.00
2023-10-02T06:28:28.184Z,1988.00
2023-10-02T06:29:28.184Z,1995.00
2023-10-02T06:30:28.196Z,2002.00
2023-10-02T06:31:28.171Z,1992.00
2023-10-02T06:32:28.169Z,1999.00
2023-10-02T06:33:28.123Z,2005.00
2023-10-02T06:34:28.092Z,2036.00
2023-10-02T06:35:28.167Z,1990.00
2023-10-02T06:36:28.071Z,2019.00
2023-10-02T06:37:28.112Z,2042.00
2023-10-02T06:38:28.096Z,2038.00
2023-10-02T06:39:28.071Z,2037.00
2023-10-02T06:40:28.045Z,1986.00
2023-10-02T06:41:28.050Z,1940.00
2023-10-02T06:42:28.008Z,1936.00
2023-10-02T06:43:28.043Z,1928.00
2023-10-02T06:44:27.981Z,1898.00
2023-10-02T06:45:27.987Z,1918.00
2023-10-02T06:46:27.998Z,1991.00
2023-10-02T06:47:28.067Z,2045.00
2023-10-02T06:48:27.974Z,2085.00
2023-10-02T06:49:27.946Z,2068.00
2023-10-02T06:50:27.978Z,2055.00
2023-10-02T06:51:27.911Z,2085.00
2023-10-02T06:52:27.928Z,2105.00
2023-10-02T06:53:27.911Z,2097.00
2023-10-02T06:54:27.880Z,2083.00
2023-10-02T06:55:27.890Z,2093.00
2023-10-02T06:56:27.860Z,2105.00
2023-10-02T06:57:27.864Z,2096.00
2023-10-02T06:58:27.887Z,2092.00
2023-10-02T06:59:27.882Z,2110.00
2023-10-02T07:00:27.817Z,2138.00
2023-10-02T07:01:27.838Z,2178.00
2023-10-02T07:02:27.936Z,2195.00
2023-10-02T07:03:27.867Z,2204.00
2023-10-02T07:04:27.839Z,2204.00
2023-10-02T07:05:27.774Z,2169.00
2023-10-02T07:06:27.771Z,2138.00
2023-10-02T07:07:27.750Z,2190.00
2023-10-02T07:08:27.783Z,2235.00
2023-10-02T07:09:27.734Z,2243.00
2023-10-02T07:10:27.725Z,2235.00
2023-10-02T07:11:27.730Z,2263.00
2023-10-02T07:12:27.688Z,2305.00
2023-10-02T07:13:27.695Z,2333.00
2023-10-02T07:14:27.735Z,2356.00
2023-10-02T07:15:27.678Z,2383.00
2023-10-02T07:16:27.774Z,2393.00
2023-10-02T07:17:27.666Z,2447.00
2023-10-02T07:18:27.862Z,2479.00
2023-10-02T07:19:27.609Z,2491.00
2023-10-02T07:20:27.673Z,2484.00
2023-10-02T07:21:27.624Z,2511.00
2023-10-02T07:22:27.596Z,2510.00
2023-10-02T07:23:27.760Z,2518.00
2023-10-02T07:24:27.575Z,2527.00
2023-10-02T07:25:27.601Z,2533.00
2023-10-02T07:26:27.582Z,2537.00
2023-10-02T07:27:27.550Z,2537.00
2023-10-02T07:28:27.523Z,2525.00
2023-10-02T07:29:27.586Z,2536.00
2023-10-02T07:30:27.491Z,2557.00
2023-10-02T07:31:27.565Z,2572.00
2023-10-02T07:32:27.601Z,2585.00
2023-10-02T07:33:27.576Z,2595.00
2023-10-02T07:34:27.509Z,2605.00
2023-10-02T07:35:27.432Z,2627.00
2023-10-02T07:36:27.474Z,2646.00
2023-10-02T07:37:27.409Z,2685.00
2023-10-02T07:38:27.423Z,2685.00
2023-10-02T07:39:27.408Z,2713.00
2023-10-02T07:40:27.380Z,2717.00
2023-10-02T07:41:27.652Z,2815.00
2023-10-02T07:42:27.359Z,2807.00
2023-10-02T07:43:27.351Z,2847.00
2023-10-02T07:44:27.356Z,2901.00
2023-10-02T07:45:27.469Z,2959.00
2023-10-02T07:46:27.427Z,3013.00
2023-10-02T07:47:27.381Z,3052.00
2023-10-02T07:48:27.312Z,2996.00
2023-10-02T07:49:27.305Z,3130.00
2023-10-02T07:50:27.298Z,3095.00
2023-10-02T07:51:29.002Z,3271.00
2023-10-02T07:52:27.286Z,3377.00
2023-10-02T07:53:27.262Z,3509.00
2023-10-02T07:54:27.245Z,3581.00
2023-10-02T07:55:27.245Z,3696.00
2023-10-02T07:56:27.238Z,3776.00
2023-10-02T07:57:27.242Z,3844.00
2023-10-02T07:58:27.223Z,3881.00
2023-10-02T07:59:27.216Z,4004.00
2023-10-02T08:00:33.743Z,4043.00
2023-10-02T08:01:27.203Z,4118.00
2023-10-02T08:02:27.212Z,4192.00
2023-10-02T08:03:27.185Z,4237.00
2023-10-02T08:04:27.142Z,4245.00
2023-10-02T08:05:27.277Z,4265.00
2023-10-02T08:06:27.152Z,4276.00
2023-10-02T08:07:42.064Z,4291.00
2023-10-02T08:08:27.184Z,4257.00
2023-10-02T08:09:27.082Z,4284.00
2023-10-02T08:10:27.067Z,4207.00
2023-10-02T08:11:27.071Z,4173.00
2023-10-02T08:12:27.048Z,4116.00
2023-10-02T08:13:27.060Z,4035.00
2023-10-02T08:14:27.021Z,4017.00
2023-10-02T08:15:27.204Z,3945.00
2023-10-02T08:16:27.024Z,3925.00
2023-10-02T08:17:27.067Z,3861.00
2023-10-02T08:18:26.988Z,3809.00
2023-10-02T08:19:26.987Z,3774.00
2023-10-02T08:20:27.021Z,3747.00
2023-10-02T08:21:26.950Z,3725.00
2023-10-02T08:22:26.926Z,3700.00
2023-10-02T08:23:26.940Z,3625.00
2023-10-02T08:24:26.949Z,3612.00
2023-10-02T08:25:27.011Z,3578.00
2023-10-02T08:26:29.933Z,3553.00
2023-10-02T08:27:26.880Z,3551.00
2023-10-02T08:28:26.862Z,3546.00
2023-10-02T08:29:26.904Z,3551.00
2023-10-02T08:30:26.869Z,3548.00
2023-10-02T08:31:26.868Z,3592.00
2023-10-02T08:32:27.120Z,3632.00
2023-10-02T08:33:37.748Z,3658.00
2023-10-02T08:34:26.839Z,3686.00
2023-10-02T08:35:27.105Z,3619.00
2023-10-02T08:36:26.775Z,3590.00
2023-10-02T08:37:26.850Z,3584.00
2023-10-02T08:38:26.784Z,3543.00
2023-10-02T08:39:26.760Z,3550.00
2023-10-02T08:40:26.777Z,3417.00
2023-10-02T08:41:26.756Z,3464.00
2023-10-02T08:42:26.711Z,3443.00
2023-10-02T08:43:26.719Z,3385.00
2023-10-02T08:44:26.713Z,3458.00
2023-10-02T08:45:26.694Z,3472.00
2023-10-02T08:46:26.739Z,3341.00
2023-10-02T08:47:26.868Z,3272.00
2023-10-02T08:48:26.833Z,3230.00
2023-10-02T08:49:26.635Z,3295.00
2023-10-02T08:50:26.661Z,3294.00
2023-10-02T08:51:26.632Z,3158.00
2023-10-02T08:52:26.631Z,3170.00
2023-10-02T08:53:26.654Z,3279.00
2023-10-02T08:54:26.581Z,3269.00
2023-10-02T08:55:26.587Z,3319.00
2023-10-02T08:56:26.669Z,3347.00
2023-10-02T08:57:28.358Z,3392.00
2023-10-02T08:58:26.558Z,3354.00
2023-10-02T08:59:26.589Z,3448.00
2023-10-02T09:00:26.559Z,3405.00
2023-10-02T09:01:26.550Z,3544.00
2023-10-02T09:02:26.586Z,3594.00
2023-10-02T09:03:26.533Z,3330.00
2023-10-02T09:04:26.554Z,3496.00
2023-10-02T09:05:26.532Z,3553.00
2023-10-02T09:06:26.535Z,3601.00
2023-10-02T09:07:26.532Z,3618.00
2023-10-02T09:08:26.454Z,3519.00
2023-10-02T09:09:26.414Z,3562.00
2023-10-02T09:10:27.361Z,3375.00
2023-10-02T09:11:26.422Z,3383.00
2023-10-02T09:12:26.430Z,3302.00
2023-10-02T09:13:26.372Z,3340.00
2023-10-02T09:14:26.443Z,3270.00
2023-10-02T09:15:31.889Z,3220.00
2023-10-02T09:16:26.390Z,3331.00
2023-10-02T09:17:26.485Z,3336.00
2023-10-02T09:18:26.351Z,3261.00
2023-10-02T09:19:26.304Z,3288.00
2023-10-02T09:20:26.308Z,3253.00
2023-10-02T09:21:26.300Z,3289.00
2023-10-02T09:22:26.277Z,3214.00
2023-10-02T09:23:26.367Z,3320.00
2023-10-02T09:24:26.254Z,3342.00
2023-10-02T09:25:26.261Z,3396.00
2023-10-02T09:26:26.772Z,3389.00
2023-10-02T09:27:26.234Z,3453.00
2023-10-02T09:28:26.209Z,3443.00
2023-10-02T09:29:26.247Z,3459.00
2023-10-02T09:30:26.208Z,3448.00
2023-10-02T09:31:26.271Z,3449.00
2023-10-02T09:32:26.274Z,3467.00
2023-10-02T09:33:49.592Z,3468.00
2023-10-02T09:35:03.628Z,3498.00
2023-10-02T09:35:44.726Z,3516.00
2023-10-02T09:37:13.906Z,3525.00
2023-10-02T09:38:05.437Z,3537.00
2023-10-02T09:38:26.205Z,3524.00
2023-10-02T09:39:26.240Z,3615.00
2023-10-02T09:40:26.264Z,3526.00
2023-10-02T09:41:26.130Z,3565.00
2023-10-02T09:42:26.088Z,3569.00
2023-10-02T09:43:26.070Z,3556.00
2023-10-02T09:44:26.083Z,3565.00
2023-10-02T09:45:26.046Z,3611.00
2023-10-02T09:46:26.015Z,3645.00
2023-10-02T09:47:26.167Z,3658.00
2023-10-02T09:48:26.040Z,3657.00
2023-10-02T09:49:26.000Z,3731.00
2023-10-02T09:50:26.016Z,3752.00
2023-10-02T09:51:25.992Z,3711.00
2023-10-02T09:52:25.954Z,3787.00
2023-10-02T09:53:26.069Z,3764.00
2023-10-02T09:54:25.930Z,3789.00
2023-10-02T09:55:25.961Z,3674.00
2023-10-02T09:56:25.954Z,3674.00
2023-10-02T09:57:25.959Z,3675.00
2023-10-02T09:58:25.885Z,3742.00
2023-10-02T09:59:25.935Z,3731.00
2023-10-02T10:00:25.880Z,3702.00
2023-10-02T10:01:25.916Z,3736.00
2023-10-02T10:02:26.030Z,3752.00
2023-10-02T10:03:26.019Z,3738.00
2023-10-02T10:04:25.823Z,3674.00
2023-10-02T10:05:25.970Z,3653.00
2023-10-02T10:06:25.820Z,3778.00
2023-10-02T10:07:25.829Z,3805.00
2023-10-02T10:08:25.831Z,3924.00
2023-10-02T10:09:25.774Z,4094.00
2023-10-02T10:10:25.774Z,4228.00
2023-10-02T10:11:25.794Z,4288.00
2023-10-02T10:12:25.739Z,4359.00
2023-10-02T10:13:25.798Z,4488.00
2023-10-02T10:14:25.761Z,4405.00
2023-10-02T10:15:26.055Z,4390.00
2023-10-02T10:16:25.729Z,4570.00
2023-10-02T10:17:25.734Z,4666.00
2023-10-02T10:18:25.682Z,4624.00
2023-10-02T10:19:25.670Z,4677.00
2023-10-02T10:20:25.692Z,4596.00
2023-10-02T10:21:25.656Z,4487.00
2023-10-02T10:22:25.689Z,4634.00
2023-10-02T10:23:25.650Z,4475.00
2023-10-02T10:24:25.646Z,4420.00
2023-10-02T10:25:25.634Z,4427.00
2023-10-02T10:26:25.676Z,4182.00
2023-10-02T10:27:25.599Z,4189.00
2023-10-02T10:28:25.571Z,4343.00
2023-10-02T10:29:25.592Z,4169.00
2023-10-02T10:30:25.599Z,4270.00
2023-10-02T10:31:25.617Z,4469.00
2023-10-02T10:32:26.157Z,4528.00
2023-10-02T10:33:25.586Z,4404.00
2023-10-02T10:34:25.504Z,4542.00
2023-10-02T10:35:25.624Z,4420.00
2023-10-02T10:36:25.514Z,4327.00
2023-10-02T10:37:25.519Z,4611.00
2023-10-02T10:38:25.586Z,4329.00
2023-10-02T10:39:27.168Z,4401.00
2023-10-02T10:40:25.442Z,4335.00
2023-10-02T10:41:25.474Z,3890.00
2023-10-02T10:42:25.484Z,3632.00
2023-10-02T10:43:25.414Z,3492.00
2023-10-02T10:44:25.431Z,3351.00
2023-10-02T10:45:25.448Z,3199.00
2023-10-02T10:46:25.382Z,3049.00
2023-10-02T10:47:25.474Z,3126.00
2023-10-02T10:48:25.411Z,3513.00
2023-10-02T10:49:25.555Z,3269.00
2023-10-02T10:50:25.356Z,3182.00
2023-10-02T10:51:25.347Z,2861.00
2023-10-02T10:52:25.336Z,3247.00
2023-10-02T10:53:25.376Z,3397.00
2023-10-02T10:54:36.538Z,3466.00
2023-10-02T10:55:25.302Z,3570.00
2023-10-02T10:56:25.345Z,3363.00
2023-10-02T10:57:25.279Z,3527.00
2023-10-02T10:58:25.282Z,3624.00
2023-10-02T10:59:25.249Z,3471.00
2023-10-02T11:00:26.282Z,3566.00
2023-10-02T11:01:25.265Z,3500.00
2023-10-02T11:02:25.308Z,3286.00
2023-10-02T11:03:25.287Z,3167.00
2023-10-02T11:04:25.185Z,3396.00
2023-10-02T11:05:25.300Z,3489.00
2023-10-02T11:06:25.169Z,3496.00
2023-10-02T11:07:25.180Z,3427.00
2023-10-02T11:08:26.084Z,3399.00
2023-10-02T11:09:25.164Z,3420.00
2023-10-02T11:10:25.125Z,3441.00
2023-10-02T11:11:25.175Z,3371.00
2023-10-02T11:12:25.139Z,3381.00
2023-10-02T11:13:25.108Z,3289.00
2023-10-02T11:14:25.123Z,3306.00
2023-10-02T11:15:25.081Z,3309.00
2023-10-02T11:16:25.086Z,3349.00
2023-10-02T11:17:25.111Z,3339.00
2023-10-02T11:18:25.260Z,3308.00
2023-10-02T11:19:25.043Z,3239.00
2023-10-02T11:20:25.044Z,3246.00
2023-10-02T11:21:25.003Z,3214.00
2023-10-02T11:22:25.043Z,3231.00
2023-10-02T11:23:25.066Z,3281.00
2023-10-02T11:24:25.000Z,3274.00
2023-10-02T11:25:24.976Z,3201.00
2023-10-02T11:26:25.011Z,3262.00
2023-10-02T11:27:25.018Z,3195.00
2023-10-02T11:28:24.932Z,3270.00
2023-10-02T11:29:25.006Z,3270.00
2023-10-02T11:30:25.034Z,3267.00
2023-10-02T11:31:24.926Z,3252.00
2023-10-02T11:32:25.068Z,3302.00
2023-10-02T11:33:24.870Z,3302.00
2023-10-02T11:34:32.883Z,3375.00
2023-10-02T11:35:24.963Z,3357.00
2023-10-02T11:36:24.874Z,3427.00
2023-10-02T11:37:24.858Z,3429.00
2023-10-02T11:38:24.900Z,3435.00
2023-10-02T11:39:24.808Z,3407.00
2023-10-02T11:40:24.817Z,3472.00
2023-10-02T11:41:24.944Z,3421.00
2023-10-02T11:42:24.810Z,3411.00
2023-10-02T11:43:24.764Z,3416.00
2023-10-02T11:44:24.776Z,3457.00
2023-10-02T11:45:24.754Z,3425.00
2023-10-02T11:46:24.805Z,3519.00
2023-10-02T11:47:24.796Z,3558.00
2023-10-02T11:48:24.762Z,3582.00
2023-10-02T11:49:24.728Z,3504.00
2023-10-02T11:50:24.787Z,3554.00
2023-10-02T11:51:24.696Z,3602.00
2023-10-02T11:52:24.711Z,3576.00
2023-10-02T11:53:24.742Z,3559.00
2023-10-02T11:54:24.660Z,3595.00
2023-10-02T11:55:24.672Z,3474.00
2023-10-02T11:56:24.671Z,3544.00
2023-10-02T11:57:24.656Z,3679.00
2023-10-02T11:58:24.624Z,3649.00
2023-10-02T11:59:24.632Z,3704.00
2023-10-02T12:00:24.617Z,3788.00
2023-10-02T12:01:24.616Z,3986.00
2023-10-02T12:02:24.624Z,3922.00
2023-10-02T12:03:24.678Z,4021.00
2023-10-02T12:04:24.554Z,4019.00
2023-10-02T12:05:24.654Z,3885.00
2023-10-02T12:06:24.543Z,3907.00
2023-10-02T12:07:24.519Z,3730.00
2023-10-02T12:08:24.543Z,3541.00
2023-10-02T12:09:24.492Z,3302.00
2023-10-02T12:10:24.499Z,3239.00
2023-10-02T12:11:24.566Z,3169.00
2023-10-02T12:12:24.486Z,3169.00
2023-10-02T12:13:24.459Z,3098.00
2023-10-02T12:14:24.456Z,3036.00
2023-10-02T12:15:24.437Z,3041.00
2023-10-02T12:16:24.456Z,3037.00
2023-10-02T12:17:24.455Z,3198.00
2023-10-02T12:18:24.427Z,3169.00
2023-10-02T12:19:24.411Z,3129.00
2023-10-02T12:20:24.619Z,3204.00
2023-10-02T12:21:24.393Z,3278.00
2023-10-02T12:22:24.364Z,3419.00
2023-10-02T12:23:24.381Z,3568.00
2023-10-02T12:24:24.350Z,3525.00
2023-10-02T12:25:24.364Z,3959.00
2023-10-02T12:26:26.472Z,4030.00
2023-10-02T12:27:24.307Z,4239.00
2023-10-02T12:28:24.318Z,4506.00
2023-10-02T12:29:24.347Z,4659.00
2023-10-02T12:30:24.299Z,4567.00
2023-10-02T12:31:24.326Z,4449.00
2023-10-02T12:32:24.315Z,4367.00
2023-10-02T12:33:24.284Z,4248.00
2023-10-02T12:34:24.238Z,4043.00